Current | Forecast
Updated: 4:50 AM +03 on December 11, 2017
Observed at Izmir, Greece
Temperature 7°C
Humidity 93%
Dew Point 6°C
Wind Variable at 4 km/h
Pressure 1022 hPa (Steady)
Conditions Scattered Clouds
Visibility 7.0 kilometers
UV 0 out of 16
Clouds Scattered Clouds (SCT) : 121 m
Scattered Clouds (SCT) : 914 m
Yesterday's Maximum 17°C
Yesterday's Minimum 8°C approx.
Yesterday's Heating Degree Days 11 approx.
Sunrise7:18 AM EET
Sunset4:54 PM EET
Moon Rise12:32 AM EET
Moon Set1:15 PM EET
Moon PhaseMoon Phase
Last Quarter
Raw METARMETAR LTBJ 110150Z VRB02KT 7000 SCT004 SCT030 07/06 Q1022 BECMG TL0300 3200 BR


Monday
. High: 71° F.
Tuesday
. High: 77° F.
Wednesday
. High: 77° F.
Thursday
. High: 78° F.
Friday
. High: 78° F.
Saturday
. High: 73° F.
Sunday
. High: 73° F.
Monday
. High: 69° F.

Units: English | Metric

Find the Weather for any City, State or Zipcode, or Country:

U.S. State List | Severe Weather | Tropical Storms | Ski Conditions
United States | Canada | Central America | South America | Asia | Europe | Australia | Africa | Islands

Weather Underground

© Copyright 2017
The Weather Company, LLC